Time;durP1;ratioP1;P1;durP2;ratioP2;P2;SDS_P1;SDS_P2;PMS_P1;PMS_P2;Temp;Humidity;BMP_temperature;BMP_pressure;BME280_temperature;BME280_humidity;BME280_pressure;Samples;Min_cycle;Max_cycle;Signal;HPM_P1;HPM_P2
2024/01/31 00:00:09;;;;;;;9.60;8.03;;;;;;;9.15;100.00;153709.34;5074148;28;20548;-96
2024/01/31 00:02:37;;;;;;;9.80;7.90;;;;;;;9.13;100.00;153705.44;5073904;28;20506;-96
2024/01/31 00:05:04;;;;;;;11.10;8.20;;;;;;;9.14;100.00;153706.75;5073696;28;20491;-96
2024/01/31 00:07:32;;;;;;;9.70;7.07;;;;;;;9.10;100.00;153696.41;5073564;28;20442;-96
2024/01/31 00:09:59;;;;;;;7.97;6.87;;;;;;;9.10;100.00;153696.41;5073480;28;20464;-96
2024/01/31 00:12:27;;;;;;;8.93;7.23;;;;;;;9.12;100.00;153701.59;5073666;28;20433;-95
2024/01/31 00:14:54;;;;;;;7.93;7.00;;;;;;;9.13;100.00;153705.44;5073706;28;20453;-96
2024/01/31 00:17:21;;;;;;;9.00;7.10;;;;;;;9.18;100.00;153717.13;5073655;28;20475;-96
2024/01/31 00:19:48;;;;;;;11.17;8.57;;;;;;;9.17;100.00;153714.50;5073642;28;20445;-96
2024/01/31 00:22:14;;;;;;;8.63;7.43;;;;;;;9.12;100.00;153702.88;5073791;28;20908;-96
2024/01/31 00:24:43;;;;;;;9.17;7.40;;;;;;;9.14;100.00;153708.03;5073702;28;20487;-96
2024/01/31 00:27:10;;;;;;;9.00;7.60;;;;;;;9.18;100.00;153717.13;5073892;28;20429;-95
2024/01/31 00:29:36;;;;;;;8.70;7.50;;;;;;;9.14;100.00;153706.75;5074569;28;20441;-96
2024/01/31 00:32:04;;;;;;;9.30;8.30;;;;;;;9.14;100.00;153706.75;5074742;28;20433;-95
2024/01/31 00:34:31;;;;;;;10.87;8.20;;;;;;;9.13;100.00;153705.44;5074456;28;20544;-96
2024/01/31 00:36:58;;;;;;;10.80;8.47;;;;;;;9.08;100.00;153692.50;5074226;28;20955;-95
2024/01/31 00:39:28;;;;;;;10.17;8.13;;;;;;;9.04;100.00;153682.19;5074438;28;20786;-95
2024/01/31 00:41:56;;;;;;;8.80;7.80;;;;;;;9.03;100.00;153679.59;5074462;28;20483;-96
2024/01/31 00:44:23;;;;;;;11.20;8.10;;;;;;;9.04;100.00;153682.19;5073237;28;20580;-96
2024/01/31 00:46:50;;;;;;;9.37;7.97;;;;;;;9.00;100.00;153670.56;5073503;28;20539;-96
2024/01/31 00:49:17;;;;;;;10.47;8.17;;;;;;;8.96;100.00;153660.19;5073532;28;20525;-95
2024/01/31 00:51:44;;;;;;;10.57;8.87;;;;;;;8.98;100.00;153666.66;5073481;28;20498;-96
2024/01/31 00:54:12;;;;;;;8.40;7.50;;;;;;;8.96;100.00;153660.19;5073463;28;20515;-96
2024/01/31 00:56:39;;;;;;;13.27;10.10;;;;;;;8.93;100.00;153653.72;5073627;28;20498;-96
2024/01/31 00:59:07;;;;;;;11.77;9.07;;;;;;;8.92;100.00;153649.88;5073582;28;20503;-96
2024/01/31 01:01:35;;;;;;;11.77;9.33;;;;;;;8.93;100.00;153653.72;5074626;28;20437;-96
2024/01/31 01:04:02;;;;;;;12.50;8.80;;;;;;;8.92;100.00;153649.88;5076082;28;20538;-96
2024/01/31 01:06:29;;;;;;;10.63;9.50;;;;;;;8.89;100.00;153643.41;5078083;28;20907;-96
2024/01/31 01:08:56;;;;;;;9.53;8.53;;;;;;;8.88;100.00;153639.50;5077896;28;20447;-96
2024/01/31 01:11:23;;;;;;;12.60;9.20;;;;;;;8.87;100.00;153636.94;5077851;28;20523;-95
2024/01/31 01:13:50;;;;;;;10.73;8.33;;;;;;;8.87;100.00;153636.94;5077155;28;20457;-96
2024/01/31 01:16:18;;;;;;;11.13;9.37;;;;;;;8.92;100.00;153649.88;5077551;28;20445;-95
2024/01/31 01:18:45;;;;;;;9.80;8.80;;;;;;;8.87;100.00;153636.94;5077367;28;20453;-95
2024/01/31 01:21:12;;;;;;;9.90;8.73;;;;;;;8.91;100.00;153648.56;5077892;28;20436;-96
2024/01/31 01:23:39;;;;;;;12.90;10.27;;;;;;;8.99;100.00;153669.25;5077638;28;20526;-96
2024/01/31 01:26:06;;;;;;;11.23;9.60;;;;;;;8.96;100.00;153660.19;5077791;28;20776;-95
2024/01/31 01:28:33;;;;;;;11.40;10.00;;;;;;;8.90;100.00;153645.97;5077187;28;20441;-96
2024/01/31 01:31:00;;;;;;;10.67;8.97;;;;;;;8.90;100.00;153644.66;5077139;28;20437;-96
2024/01/31 01:33:28;;;;;;;11.63;9.83;;;;;;;8.89;100.00;153643.41;5077309;28;20537;-96
2024/01/31 01:35:55;;;;;;;16.63;10.43;;;;;;;8.92;100.00;153649.88;5077307;28;20540;-95
2024/01/31 01:38:22;;;;;;;10.00;8.73;;;;;;;8.88;100.00;153639.50;5077031;28;20472;-96
2024/01/31 01:40:49;;;;;;;9.90;8.90;;;;;;;8.86;100.00;153634.34;5077284;28;20530;-95
2024/01/31 01:43:17;;;;;;;10.40;8.50;;;;;;;8.86;100.00;153634.34;5077692;28;20437;-96
2024/01/31 01:45:44;;;;;;;11.00;8.57;;;;;;;8.87;100.00;153636.94;5076850;28;20460;-96
2024/01/31 01:48:11;;;;;;;11.80;8.47;;;;;;;8.86;100.00;153635.66;5076605;28;20437;-96
2024/01/31 01:50:39;;;;;;;9.10;8.10;;;;;;;8.87;100.00;153636.94;5076756;28;20447;-96
2024/01/31 01:53:06;;;;;;;9.10;8.20;;;;;;;8.90;100.00;153644.66;5076353;28;20483;-95
2024/01/31 01:55:33;;;;;;;11.50;8.83;;;;;;;8.91;100.00;153648.56;5076355;28;20536;-96
2024/01/31 01:58:00;;;;;;;9.90;8.60;;;;;;;8.91;100.00;153647.28;5076341;28;20433;-95
2024/01/31 02:00:27;;;;;;;9.67;8.67;;;;;;;8.88;100.00;153639.50;5076410;28;20441;-94
2024/01/31 02:02:54;;;;;;;9.97;8.33;;;;;;;8.86;100.00;153634.34;5076317;28;20448;-96
2024/01/31 02:05:21;;;;;;;15.40;8.80;;;;;;;8.87;100.00;153636.94;5075664;28;20542;-95
2024/01/31 02:07:50;;;;;;;11.53;8.80;;;;;;;8.87;100.00;153636.94;5076246;28;20449;-96
2024/01/31 02:10:17;;;;;;;11.03;8.53;;;;;;;8.89;100.00;153642.13;5078118;28;20452;-95
2024/01/31 02:12:44;;;;;;;10.40;8.63;;;;;;;8.90;100.00;153644.66;5089714;28;20449;-95
2024/01/31 02:15:10;;;;;;;10.10;8.80;;;;;;;8.88;100.00;153639.50;5082425;28;20475;-96
2024/01/31 02:17:37;;;;;;;8.80;7.90;;;;;;;8.85;100.00;153633.03;5077559;28;20487;-96
2024/01/31 02:20:05;;;;;;;9.97;8.50;;;;;;;8.88;100.00;153639.50;5077571;28;20493;-96
2024/01/31 02:22:33;;;;;;;8.77;7.43;;;;;;;8.88;100.00;153639.50;5077741;28;20441;-96
2024/01/31 02:25:01;;;;;;;10.70;8.13;;;;;;;8.90;100.00;153644.66;5077399;28;20477;-96
2024/01/31 02:27:28;;;;;;;10.33;9.13;;;;;;;8.90;100.00;153644.66;5077086;28;20931;-96
2024/01/31 02:29:55;;;;;;;10.67;8.57;;;;;;;8.93;100.00;153653.72;5075896;28;21024;-96
2024/01/31 02:32:22;;;;;;;10.10;8.43;;;;;;;8.91;100.00;153647.28;5075777;28;20544;-96
2024/01/31 02:34:49;;;;;;;9.40;7.97;;;;;;;8.91;100.00;153647.28;5075341;28;20441;-95
2024/01/31 02:37:16;;;;;;;10.37;9.27;;;;;;;8.90;100.00;153644.66;5075789;28;20445;-95
2024/01/31 02:39:44;;;;;;;12.00;9.27;;;;;;;8.93;100.00;153652.44;5075611;28;20457;-96
2024/01/31 02:42:11;;;;;;;9.80;8.17;;;;;;;8.91;100.00;153647.28;5075265;28;20469;-96
2024/01/31 02:44:38;;;;;;;10.10;7.80;;;;;;;8.91;100.00;153647.28;5075315;28;20481;-95
2024/01/31 02:47:05;;;;;;;10.30;8.57;;;;;;;8.91;100.00;153647.28;5075286;28;20449;-95
2024/01/31 02:49:32;;;;;;;10.00;9.00;;;;;;;8.92;100.00;153649.88;5075127;28;20526;-96
2024/01/31 02:51:58;;;;;;;11.53;7.97;;;;;;;8.91;100.00;153648.56;5075234;28;20489;-95
2024/01/31 02:54:25;;;;;;;11.00;7.63;;;;;;;8.92;100.00;153649.88;5075300;28;20946;-95
2024/01/31 02:56:53;;;;;;;9.47;7.10;;;;;;;8.92;100.00;153649.88;5075242;28;20455;-96
2024/01/31 02:59:22;;;;;;;8.70;6.97;;;;;;;8.89;100.00;153643.41;5075271;28;20441;-96
2024/01/31 03:01:50;;;;;;;11.53;6.83;;;;;;;8.87;100.00;153638.22;5075251;28;20478;-96
2024/01/31 03:04:18;;;;;;;8.40;7.60;;;;;;;8.90;100.00;153644.66;5075206;28;20477;-96
2024/01/31 03:06:45;;;;;;;9.03;7.30;;;;;;;8.93;100.00;153653.72;5075269;28;20540;-95
2024/01/31 03:09:11;;;;;;;9.07;7.47;;;;;;;8.90;100.00;153645.97;5075436;28;20469;-96
2024/01/31 03:11:38;;;;;;;9.33;7.17;;;;;;;8.91;100.00;153648.56;5075850;28;20459;-95
2024/01/31 03:14:07;;;;;;;8.67;7.83;;;;;;;8.93;100.00;153652.44;5075160;28;20538;-95
2024/01/31 03:16:33;;;;;;;9.93;8.87;;;;;;;8.94;100.00;153655.03;5074964;28;20482;-96
2024/01/31 03:19:00;;;;;;;9.27;7.87;;;;;;;8.96;100.00;153660.19;5075236;28;20502;-96
2024/01/31 03:21:27;;;;;;;9.67;8.20;;;;;;;8.94;100.00;153655.03;5075530;28;20916;-96
2024/01/31 03:23:54;;;;;;;10.97;8.60;;;;;;;8.90;100.00;153644.66;5074868;28;20491;-96
2024/01/31 03:26:21;;;;;;;10.37;8.23;;;;;;;8.90;100.00;153645.97;5074217;28;20583;-95
2024/01/31 03:28:48;;;;;;;9.60;8.37;;;;;;;8.86;100.00;153635.66;5075119;28;20590;-95
2024/01/31 03:31:16;;;;;;;11.07;7.70;;;;;;;8.83;100.00;153626.59;5075283;28;20533;-96
2024/01/31 03:33:43;;;;;;;8.27;7.20;;;;;;;8.82;100.00;153623.97;5074658;28;20449;-96
2024/01/31 03:36:11;;;;;;;11.50;7.73;;;;;;;8.78;100.00;153613.66;5074736;28;20437;-96
2024/01/31 03:38:38;;;;;;;8.60;7.50;;;;;;;8.74;100.00;153603.28;5074981;28;20425;-96
2024/01/31 03:41:05;;;;;;;11.03;7.83;;;;;;;8.80;100.00;153618.81;5074551;28;20947;-95
2024/01/31 03:43:32;;;;;;;8.70;7.63;;;;;;;8.77;100.00;153612.34;5074416;28;20436;-96
2024/01/31 03:46:00;;;;;;;8.90;7.47;;;;;;;8.72;100.00;153599.44;5075874;28;20473;-96
2024/01/31 03:48:28;;;;;;;7.63;6.83;;;;;;;8.73;100.00;153600.72;5080415;28;20468;-96
2024/01/31 03:50:58;;;;;;;8.73;7.23;;;;;;;8.74;100.00;153604.59;5074444;28;20521;-96
2024/01/31 03:53:25;;;;;;;8.70;7.73;;;;;;;8.74;100.00;153603.28;5074061;28;20526;-96
2024/01/31 03:55:52;;;;;;;11.80;8.23;;;;;;;8.70;100.00;153594.28;5074677;28;20528;-96
2024/01/31 03:58:19;;;;;;;9.43;7.70;;;;;;;8.74;100.00;153603.28;5074321;28;20874;-95
2024/01/31 04:00:46;;;;;;;7.87;6.80;;;;;;;8.71;100.00;153595.56;5074284;28;20445;-96
2024/01/31 04:03:13;;;;;;;9.67;7.57;;;;;;;8.73;100.00;153600.72;5074693;28;20456;-95
2024/01/31 04:05:41;;;;;;;8.67;7.53;;;;;;;8.68;100.00;153587.81;5077986;28;20975;-96
2024/01/31 04:08:08;;;;;;;10.30;7.13;;;;;;;8.65;100.00;153580.03;5078972;28;20477;-94
2024/01/31 04:10:36;;;;;;;10.40;7.23;;;;;;;8.67;100.00;153586.50;5078663;28;20467;-95
2024/01/31 04:13:03;;;;;;;11.47;8.00;;;;;;;8.69;100.00;153591.66;5079565;28;20524;-95
2024/01/31 04:15:30;;;;;;;9.70;7.93;;;;;;;8.66;100.00;153582.66;5078301;28;20445;-95
2024/01/31 04:17:58;;;;;;;10.90;7.83;;;;;;;8.66;100.00;153583.91;5094059;28;20441;-95
2024/01/31 04:20:24;;;;;;;9.20;7.27;;;;;;;8.70;100.00;153592.97;5076961;28;20432;-95
2024/01/31 04:22:53;;;;;;;9.53;7.57;;;;;;;8.71;100.00;153595.56;5076690;28;20451;-94
2024/01/31 04:25:20;;;;;;;8.33;7.00;;;;;;;8.75;100.00;153605.91;5076203;28;20477;-94
2024/01/31 04:27:46;;;;;;;10.20;7.90;;;;;;;8.75;100.00;153605.91;5075686;28;20552;-94
2024/01/31 04:30:14;;;;;;;7.87;6.93;;;;;;;8.73;100.00;153602.03;5073401;28;20486;-94
2024/01/31 04:32:40;;;;;;;10.07;7.63;;;;;;;8.71;100.00;153596.81;5073913;28;20910;-94
2024/01/31 04:35:09;;;;;;;8.90;7.70;;;;;;;8.78;100.00;153613.66;5090368;28;20916;-95
2024/01/31 04:37:35;;;;;;;9.97;7.93;;;;;;;8.79;100.00;153616.25;5073530;28;20429;-94
2024/01/31 04:40:04;;;;;;;8.13;7.20;;;;;;;8.80;100.00;153618.81;5073581;28;20448;-94
2024/01/31 04:42:31;;;;;;;7.17;6.47;;;;;;;8.78;100.00;153613.66;5073019;28;20466;-95
2024/01/31 04:44:58;;;;;;;10.23;7.87;;;;;;;8.81;100.00;153622.72;5073188;28;20480;-95
2024/01/31 04:47:25;;;;;;;8.13;6.70;;;;;;;8.74;100.00;153604.59;5073525;28;20448;-94
2024/01/31 04:49:52;;;;;;;9.87;8.47;;;;;;;8.80;100.00;153618.81;5073650;28;20459;-95
2024/01/31 04:52:19;;;;;;;9.13;7.40;;;;;;;8.83;100.00;153626.59;5073596;28;20421;-94
2024/01/31 04:54:45;;;;;;;7.63;6.57;;;;;;;8.77;100.00;153612.34;5073016;28;20475;-95
2024/01/31 04:57:14;;;;;;;8.00;7.00;;;;;;;8.71;100.00;153596.81;5073075;28;20874;-94
2024/01/31 04:59:42;;;;;;;10.17;7.17;;;;;;;8.68;100.00;153589.13;5073172;28;20437;-95
2024/01/31 05:02:09;;;;;;;7.20;6.43;;;;;;;8.69;100.00;153591.66;5073214;28;20461;-94
2024/01/31 05:04:36;;;;;;;8.30;7.50;;;;;;;8.68;100.00;153589.13;5072675;28;20457;-94
2024/01/31 05:07:02;;;;;;;8.83;7.27;;;;;;;8.67;100.00;153585.22;5073300;28;20456;-94
2024/01/31 05:09:29;;;;;;;8.33;6.47;;;;;;;8.70;100.00;153592.97;5073311;28;20542;-95
2024/01/31 05:11:56;;;;;;;7.87;7.07;;;;;;;8.71;100.00;153595.56;5073350;28;20495;-95
2024/01/31 05:14:24;;;;;;;7.67;6.93;;;;;;;8.71;100.00;153595.56;5073245;28;20801;-96
2024/01/31 05:16:51;;;;;;;8.23;6.97;;;;;;;8.71;100.00;153595.56;5073090;28;20532;-95
2024/01/31 05:19:18;;;;;;;7.57;6.30;;;;;;;8.69;100.00;153590.38;5073049;28;20459;-95
2024/01/31 05:21:46;;;;;;;9.67;7.60;;;;;;;8.70;100.00;153592.97;5073084;28;20468;-95
2024/01/31 05:24:13;;;;;;;9.03;6.80;;;;;;;8.70;100.00;153592.97;5073043;28;20785;-95
2024/01/31 05:26:40;;;;;;;9.03;7.00;;;;;;;8.68;100.00;153587.81;5072870;28;20505;-96
2024/01/31 05:29:06;;;;;;;8.47;7.67;;;;;;;8.72;100.00;153598.13;5072829;28;20471;-95
2024/01/31 05:31:35;;;;;;;9.50;7.53;;;;;;;8.73;100.00;153600.72;5073016;28;20449;-95
2024/01/31 05:34:01;;;;;;;7.77;7.00;;;;;;;8.70;100.00;153592.97;5072995;28;20448;-95
2024/01/31 05:36:28;;;;;;;9.53;7.30;;;;;;;8.71;100.00;153596.81;5073096;28;20540;-95
2024/01/31 05:38:55;;;;;;;8.40;7.40;;;;;;;8.72;100.00;153598.13;5073022;28;20452;-96
2024/01/31 05:41:22;;;;;;;7.73;6.80;;;;;;;8.72;100.00;153599.44;5072899;28;20523;-95
2024/01/31 05:43:48;;;;;;;7.50;6.30;;;;;;;8.72;100.00;153598.13;5072911;28;20476;-96
2024/01/31 05:46:17;;;;;;;8.73;7.23;;;;;;;8.79;100.00;153617.50;5072596;28;20476;-95
2024/01/31 05:48:46;;;;;;;7.83;6.70;;;;;;;8.81;100.00;153621.41;5073548;28;20528;-95
2024/01/31 05:51:13;;;;;;;7.23;5.70;;;;;;;8.80;100.00;153618.81;5076630;28;20437;-95
2024/01/31 05:53:40;;;;;;;8.40;6.77;;;;;;;8.80;100.00;153618.81;5076327;28;20452;-95
2024/01/31 05:56:07;;;;;;;8.53;6.60;;;;;;;8.81;100.00;153621.41;5076819;28;20467;-95
2024/01/31 05:58:34;;;;;;;8.33;6.40;;;;;;;8.82;100.00;153623.97;5077435;28;20452;-95
2024/01/31 06:01:01;;;;;;;8.77;7.17;;;;;;;8.88;100.00;153640.81;5066148;28;21011;-95
2024/01/31 06:03:28;;;;;;;9.73;7.30;;;;;;;8.86;100.00;153635.66;5056273;28;20450;-96
2024/01/31 06:05:58;;;;;;;10.67;7.40;;;;;;;8.85;100.00;153631.75;5056232;28;20473;-95
2024/01/31 06:08:25;;;;;;;9.50;7.00;;;;;;;8.86;100.00;153634.34;5061473;28;20487;-96
2024/01/31 06:10:54;;;;;;;10.20;6.67;;;;;;;8.87;100.00;153636.94;5036136;28;20479;-94
2024/01/31 06:13:21;;;;;;;10.03;7.13;;;;;;;8.87;100.00;153636.94;5036282;28;20789;-94
2024/01/31 06:15:48;;;;;;;7.00;6.30;;;;;;;8.84;100.00;153629.19;5036894;28;20443;-94
2024/01/31 06:18:15;;;;;;;9.30;7.17;;;;;;;8.84;100.00;153630.44;5052633;28;20820;-94
2024/01/31 06:20:44;;;;;;;8.10;6.60;;;;;;;8.88;100.00;153639.50;5052618;28;20451;-94
2024/01/31 06:23:12;;;;;;;9.33;7.47;;;;;;;8.88;100.00;153639.50;5036082;28;20441;-94
2024/01/31 06:25:39;;;;;;;10.93;6.60;;;;;;;8.84;100.00;153629.19;5058311;28;20482;-94
2024/01/31 06:28:07;;;;;;;8.10;7.13;;;;;;;8.83;100.00;153626.59;5053876;28;20455;-94
2024/01/31 06:30:40;;;;;;;8.17;6.97;;;;;;;8.83;100.00;153627.88;5052922;28;20443;-95
2024/01/31 06:33:07;;;;;;;9.80;6.97;;;;;;;8.89;100.00;153643.41;5052265;28;20550;-94
2024/01/31 06:35:34;;;;;;;8.90;7.30;;;;;;;8.87;100.00;153636.94;5052083;28;20487;-94
2024/01/31 06:38:01;;;;;;;7.87;6.60;;;;;;;8.82;100.00;153623.97;5051821;28;20557;-95
2024/01/31 06:40:30;;;;;;;8.93;7.20;;;;;;;8.80;100.00;153620.13;5035647;28;20435;-94
2024/01/31 06:42:57;;;;;;;8.20;7.33;;;;;;;8.77;100.00;153611.06;5034978;28;20952;-94
2024/01/31 06:45:24;;;;;;;9.00;7.83;;;;;;;8.77;100.00;153612.34;5051579;28;20532;-95
2024/01/31 06:47:51;;;;;;;7.93;6.43;;;;;;;8.72;100.00;153598.13;5035058;28;20439;-95
2024/01/31 06:50:18;;;;;;;10.07;7.43;;;;;;;8.70;100.00;153592.97;5035089;28;20481;-94
2024/01/31 06:52:46;;;;;;;7.63;6.80;;;;;;;8.67;100.00;153585.22;5035395;28;20451;-94
2024/01/31 06:55:13;;;;;;;11.13;8.40;;;;;;;8.64;100.00;153578.75;5034812;28;20439;-94
2024/01/31 06:57:42;;;;;;;10.87;8.53;;;;;;;8.54;100.00;153554.19;5051789;28;20913;-94
2024/01/31 07:00:10;;;;;;;10.37;8.53;;;;;;;8.46;100.00;153533.53;5051615;28;20454;-94
2024/01/31 07:02:37;;;;;;;11.80;9.10;;;;;;;8.41;100.00;153520.59;5051694;28;20938;-94
2024/01/31 07:05:04;;;;;;;10.30;8.07;;;;;;;8.41;100.00;153520.59;5051549;28;20488;-94
2024/01/31 07:07:31;;;;;;;13.40;9.77;;;;;;;8.34;100.00;153502.47;5051327;28;20528;-95
2024/01/31 07:09:58;;;;;;;10.33;9.23;;;;;;;8.24;100.00;153476.59;5051599;28;20439;-95
2024/01/31 07:12:25;;;;;;;11.87;10.27;;;;;;;8.15;100.00;153452.03;5051478;28;20451;-93
2024/01/31 07:14:53;;;;;;;11.80;10.40;;;;;;;8.10;100.00;153440.38;5051499;28;20454;-94
2024/01/31 07:17:20;;;;;;;15.33;11.63;;;;;;;8.06;100.00;153428.75;5051413;28;20439;-94
2024/01/31 07:19:46;;;;;;;11.77;10.20;;;;;;;8.04;100.00;153424.91;5034695;28;20492;-95
2024/01/31 07:22:13;;;;;;;13.03;11.63;;;;;;;8.07;100.00;153432.66;5034555;28;20443;-94
2024/01/31 07:24:43;;;;;;;17.20;12.83;;;;;;;8.08;100.00;153435.22;5034490;28;20577;-94
2024/01/31 07:27:10;;;;;;;19.33;12.87;;;;;;;8.16;100.00;153455.91;5051362;28;21064;-94
2024/01/31 07:29:37;;;;;;;14.23;12.00;;;;;;;8.15;100.00;153453.34;5051184;28;20461;-95
2024/01/31 07:32:06;;;;;;;12.07;10.43;;;;;;;8.15;100.00;153453.34;5034433;28;20493;-94
2024/01/31 07:34:32;;;;;;;16.13;10.90;;;;;;;8.15;100.00;153453.34;5034258;28;21044;-94
2024/01/31 07:36:59;;;;;;;12.77;11.40;;;;;;;8.22;100.00;153471.44;5034375;28;20523;-93
2024/01/31 07:39:26;;;;;;;14.47;12.47;;;;;;;8.25;100.00;153479.19;5034141;28;20470;-94
2024/01/31 07:41:53;;;;;;;13.83;11.23;;;;;;;8.26;100.00;153481.75;5033973;28;20479;-94
2024/01/31 07:44:20;;;;;;;14.27;11.80;;;;;;;8.29;100.00;153489.56;5034178;28;20494;-94
2024/01/31 07:46:46;;;;;;;11.93;10.50;;;;;;;8.34;100.00;153501.22;5033921;28;20471;-94
2024/01/31 07:49:15;;;;;;;12.43;11.10;;;;;;;8.29;100.00;153489.56;5033929;28;20451;-94
2024/01/31 07:51:42;;;;;;;10.90;9.80;;;;;;;8.26;100.00;153481.75;5034130;28;20435;-94
2024/01/31 07:54:09;;;;;;;12.60;10.50;;;;;;;8.22;100.00;153471.44;5034104;28;20439;-94
2024/01/31 07:56:36;;;;;;;14.87;12.20;;;;;;;8.23;100.00;153472.72;5033797;28;20455;-94
2024/01/31 07:59:03;;;;;;;14.33;12.80;;;;;;;8.25;100.00;153479.19;5033858;28;20455;-94
2024/01/31 08:01:30;;;;;;;11.80;10.50;;;;;;;8.24;100.00;153476.59;5033914;28;20491;-94
2024/01/31 08:03:57;;;;;;;13.57;11.80;;;;;;;8.27;100.00;153484.41;5035099;28;20486;-94
2024/01/31 08:06:25;;;;;;;16.53;12.50;;;;;;;8.28;100.00;153487.00;5035215;28;20991;-93
2024/01/31 08:08:52;;;;;;;13.37;10.57;;;;;;;8.27;100.00;153484.41;5050518;28;20884;-93
2024/01/31 08:11:18;;;;;;;13.67;11.80;;;;;;;8.24;100.00;153476.59;5050385;28;20455;-94
2024/01/31 08:13:45;;;;;;;15.53;11.80;;;;;;;8.27;100.00;153484.41;5035142;28;20447;-93
2024/01/31 08:16:12;;;;;;;15.13;11.43;;;;;;;8.31;100.00;153494.72;5042597;28;20461;-94
2024/01/31 08:18:39;;;;;;;13.37;11.27;;;;;;;8.30;100.00;153492.16;5043968;28;20526;-94
2024/01/31 08:21:07;;;;;;;13.60;11.20;;;;;;;8.31;100.00;153494.72;5038133;28;20475;-93
2024/01/31 08:23:35;;;;;;;15.10;11.40;;;;;;;8.33;100.00;153498.63;5038477;28;20434;-95
2024/01/31 08:26:03;;;;;;;14.00;11.57;;;;;;;8.32;100.00;153497.31;5040665;28;20474;-94
2024/01/31 08:28:30;;;;;;;13.37;11.63;;;;;;;8.32;100.00;153496.00;5059153;28;20505;-95
2024/01/31 08:30:57;;;;;;;13.57;11.27;;;;;;;8.27;100.00;153484.41;5042287;28;20445;-94
2024/01/31 08:33:23;;;;;;;12.90;11.53;;;;;;;8.25;100.00;153477.88;5057839;28;20475;-93
2024/01/31 08:35:50;;;;;;;13.13;10.77;;;;;;;8.25;100.00;153479.19;5058088;28;20447;-94
2024/01/31 08:38:18;;;;;;;14.50;11.27;;;;;;;8.22;100.00;153471.44;5041588;28;20508;-94
2024/01/31 08:40:46;;;;;;;12.83;11.30;;;;;;;8.21;100.00;153468.81;5040652;28;20472;-94
2024/01/31 08:43:12;;;;;;;15.00;12.00;;;;;;;8.21;100.00;153468.81;5041053;28;20470;-94
2024/01/31 08:45:39;;;;;;;15.00;10.60;;;;;;;8.19;100.00;153463.66;5042536;28;20455;-94
2024/01/31 08:48:07;;;;;;;12.77;10.73;;;;;;;8.23;100.00;153472.72;5042833;28;20541;-94
2024/01/31 08:50:34;;;;;;;16.47;11.37;;;;;;;8.26;100.00;153481.75;5042334;28;20447;-93
2024/01/31 08:53:00;;;;;;;12.10;10.83;;;;;;;8.26;100.00;153481.75;5040802;28;20553;-94
2024/01/31 08:55:27;;;;;;;14.27;11.30;;;;;;;8.29;100.00;153488.25;5040760;28;20453;-94
2024/01/31 08:57:56;;;;;;;15.67;12.03;;;;;;;8.30;100.00;153492.16;5057048;28;20466;-93
2024/01/31 09:00:22;;;;;;;18.50;13.27;;;;;;;8.33;100.00;153499.91;5041840;28;20529;-93
2024/01/31 09:02:49;;;;;;;17.77;13.23;;;;;;;8.39;100.00;153515.38;5041365;28;20454;-94
2024/01/31 09:05:16;;;;;;;16.90;13.07;;;;;;;8.40;100.00;153516.69;5039821;28;20480;-93
2024/01/31 09:07:43;;;;;;;16.30;12.37;;;;;;;8.42;100.00;153521.84;5055228;28;20477;-94
2024/01/31 09:10:10;;;;;;;15.63;11.47;;;;;;;8.44;100.00;153528.34;5038329;28;20439;-93
2024/01/31 09:12:37;;;;;;;17.37;12.97;;;;;;;8.50;100.00;153543.84;5038140;28;20502;-94
2024/01/31 09:15:06;;;;;;;14.10;10.97;;;;;;;8.62;100.00;153573.59;5038216;28;20550;-94
2024/01/31 09:17:33;;;;;;;18.20;12.80;;;;;;;8.63;100.00;153576.13;5032955;28;20459;-94
2024/01/31 09:19:59;;;;;;;16.20;12.60;;;;;;;8.63;100.00;153574.88;5033073;28;20446;-93
2024/01/31 09:22:26;;;;;;;15.63;12.40;;;;;;;8.68;100.00;153587.81;5033120;28;20442;-94
2024/01/31 09:24:53;;;;;;;12.70;11.40;;;;;;;8.75;100.00;153607.19;5052016;28;20447;-94
2024/01/31 09:27:20;;;;;;;21.30;12.90;;;;;;;8.80;100.00;153618.81;5036838;28;20943;-95
2024/01/31 09:29:47;;;;;;;19.10;13.40;;;;;;;8.83;100.00;153626.59;5036997;28;20442;-94
2024/01/31 09:32:15;;;;;;;14.27;12.40;;;;;;;8.83;100.00;153626.59;5053255;28;20446;-95
2024/01/31 09:34:43;;;;;;;15.87;12.50;;;;;;;8.81;100.00;153621.41;5036796;28;20439;-94
2024/01/31 09:37:10;;;;;;;14.80;12.17;;;;;;;8.81;100.00;153621.41;5036579;28;20505;-95
2024/01/31 09:39:37;;;;;;;15.00;12.07;;;;;;;8.76;100.00;153609.81;5036622;28;20455;-95
2024/01/31 09:42:04;;;;;;;15.73;12.30;;;;;;;8.76;100.00;153608.50;5036290;28;20470;-94
2024/01/31 09:51:34;;;;;;;14.83;12.10;;;;;;;8.84;100.00;153630.44;5016786;28;20434;-95
2024/01/31 09:54:07;;;;;;;21.63;14.50;;;;;;;8.88;100.00;153640.81;5036119;28;20963;-95
2024/01/31 09:56:33;;;;;;;15.50;12.30;;;;;;;8.94;100.00;153656.34;5036330;28;20458;-95
2024/01/31 09:59:00;;;;;;;15.73;13.30;;;;;;;8.94;100.00;153655.03;5036472;28;20445;-96
2024/01/31 10:01:27;;;;;;;14.90;12.37;;;;;;;8.94;100.00;153655.03;5036424;28;20560;-95
2024/01/31 10:03:57;;;;;;;15.90;12.80;;;;;;;8.97;100.00;153662.81;5036475;28;20595;-96
2024/01/31 10:06:24;;;;;;;18.57;13.37;;;;;;;8.97;100.00;153664.09;5035882;28;20822;-96
2024/01/31 10:08:52;;;;;;;16.90;13.17;;;;;;;8.98;100.00;153665.34;5035933;28;20447;-93
2024/01/31 10:11:18;;;;;;;18.90;13.20;;;;;;;8.99;100.00;153669.25;5037216;28;20457;-94
2024/01/31 10:13:45;;;;;;;14.70;13.20;;;;;;;8.98;100.00;153665.34;5041021;28;20890;-95
2024/01/31 10:16:12;;;;;;;18.20;14.40;;;;;;;8.97;100.00;153664.09;5038384;28;20519;-94
2024/01/31 10:18:40;;;;;;;18.90;13.93;;;;;;;8.99;100.00;153667.97;5053316;28;20478;-95
2024/01/31 10:21:06;;;;;;;16.60;14.90;;;;;;;9.02;100.00;153677.03;5052813;28;20443;-94
2024/01/31 10:23:33;;;;;;;16.93;14.00;;;;;;;9.04;100.00;153682.19;5035493;28;20435;-94
2024/01/31 10:26:01;;;;;;;16.30;13.40;;;;;;;8.98;100.00;153665.34;5035688;28;20431;-94
2024/01/31 10:28:28;;;;;;;18.80;14.77;;;;;;;9.00;100.00;153671.81;5035639;28;20455;-94
2024/01/31 10:30:56;;;;;;;19.10;15.47;;;;;;;9.05;100.00;153683.50;5036021;28;20447;-95
2024/01/31 10:33:23;;;;;;;19.47;13.57;;;;;;;9.06;100.00;153686.06;5035250;28;20483;-94
2024/01/31 10:35:50;;;;;;;16.20;12.90;;;;;;;9.04;100.00;153680.88;5051707;28;20453;-95
2024/01/31 10:38:17;;;;;;;16.53;12.70;;;;;;;9.01;100.00;153673.13;5051984;28;20470;-94
2024/01/31 10:40:45;;;;;;;15.13;12.50;;;;;;;9.06;100.00;153686.06;5035328;28;20426;-95
2024/01/31 10:43:17;;;;;;;15.50;12.70;;;;;;;9.06;100.00;153686.06;5035379;28;20451;-95
2024/01/31 10:45:44;;;;;;;15.17;12.67;;;;;;;9.12;100.00;153701.59;5035417;28;20510;-95
2024/01/31 10:48:10;;;;;;;15.43;13.40;;;;;;;9.18;100.00;153718.41;5052009;28;20544;-95
2024/01/31 10:50:37;;;;;;;17.03;14.10;;;;;;;9.18;100.00;153717.13;5035399;28;20431;-95
2024/01/31 10:53:06;;;;;;;19.03;13.87;;;;;;;9.19;100.00;153719.69;5035038;28;20439;-94
2024/01/31 10:55:33;;;;;;;14.47;12.33;;;;;;;9.25;100.00;153733.91;5035174;28;20442;-95
2024/01/31 10:58:01;;;;;;;19.13;13.07;;;;;;;9.27;100.00;153740.38;5035024;28;20459;-94
2024/01/31 11:00:29;;;;;;;17.47;14.17;;;;;;;9.33;100.00;153755.91;5034957;28;20430;-94
2024/01/31 11:02:57;;;;;;;17.67;12.87;;;;;;;9.42;100.00;153777.91;5035030;28;20459;-95
2024/01/31 11:05:26;;;;;;;15.77;13.83;;;;;;;9.49;100.00;153797.31;5051778;28;20505;-94
2024/01/31 11:07:53;;;;;;;14.80;13.20;;;;;;;9.55;100.00;153812.84;5034876;28;20483;-94
2024/01/31 11:10:22;;;;;;;14.23;12.67;;;;;;;9.65;100.00;153837.41;5034949;28;20518;-94
2024/01/31 11:12:57;;;;;;;15.33;12.77;;;;;;;9.68;100.00;153846.47;5034770;28;20453;-95
2024/01/31 11:15:33;;;;;;;14.77;13.23;;;;;;;9.68;100.00;153846.47;5051701;28;20509;-94
2024/01/31 11:18:05;;;;;;;14.90;12.90;;;;;;;9.73;100.00;153858.09;5034707;28;20541;-94
2024/01/31 11:20:33;;;;;;;16.10;13.80;;;;;;;9.73;100.00;153859.41;5034862;28;21358;-93
2024/01/31 11:23:00;;;;;;;18.73;14.07;;;;;;;9.75;100.00;153864.56;5035178;28;20866;-94